Time;durP1;ratioP1;P1;durP2;ratioP2;P2;SDS_P1;SDS_P2;PMS_P1;PMS_P2;Temp;Humidity;BMP_temperature;BMP_pressure;BME280_temperature;BME280_humidity;BME280_pressure;Samples;Min_cycle;Max_cycle;Signal;HPM_P1;HPM_P2
2021/09/16 00:01:22;;;;;;;12.45;7.90;;;;;;;;;;5067371;28;20052;-83
2021/09/16 00:03:48;;;;;;;12.77;7.57;;;;;;;;;;5062884;28;20048;-84
2021/09/16 00:06:17;;;;;;;11.55;7.18;;;;;;;;;;5061579;28;20466;-83
2021/09/16 00:08:43;;;;;;;11.80;7.00;;;;;;;;;;5060393;28;20063;-83
2021/09/16 00:11:10;;;;;;;10.77;7.07;;;;;;;;;;5060235;28;20049;-83
2021/09/16 00:13:37;;;;;;;12.65;7.75;;;;;;;;;;5060733;28;20053;-83
2021/09/16 00:16:04;;;;;;;11.13;7.63;;;;;;;;;;5059839;28;20106;-83
2021/09/16 00:18:31;;;;;;;12.02;7.45;;;;;;;;;;5059917;28;20055;-83
2021/09/16 00:20:58;;;;;;;12.07;8.00;;;;;;;;;;5059933;28;20040;-83
2021/09/16 00:23:26;;;;;;;11.25;6.75;;;;;;;;;;5059254;28;20041;-83
2021/09/16 00:25:53;;;;;;;13.80;7.15;;;;;;;;;;5059734;28;20041;-83
2021/09/16 00:28:20;;;;;;;11.32;6.85;;;;;;;;;;5061941;28;20045;-83
2021/09/16 00:30:47;;;;;;;11.15;7.78;;;;;;;;;;5058817;28;20045;-83
2021/09/16 00:33:14;;;;;;;10.60;7.03;;;;;;;;;;5059089;28;20079;-83
2021/09/16 00:35:40;;;;;;;10.15;6.45;;;;;;;;;;5059790;28;20045;-83
2021/09/16 00:38:08;;;;;;;10.80;6.38;;;;;;;;;;5059157;28;20057;-83
2021/09/16 00:40:36;;;;;;;10.52;7.22;;;;;;;;;;5058513;28;20076;-83
2021/09/16 00:43:03;;;;;;;12.23;6.55;;;;;;;;;;5060883;28;20040;-83
2021/09/16 00:45:31;;;;;;;12.27;7.40;;;;;;;;;;5059766;28;20057;-83
2021/09/16 00:47:57;;;;;;;12.35;7.20;;;;;;;;;;5058528;28;20045;-84
2021/09/16 00:50:25;;;;;;;15.23;7.97;;;;;;;;;;5057550;28;20328;-83
2021/09/16 00:52:53;;;;;;;12.30;6.95;;;;;;;;;;5058618;28;20140;-83
2021/09/16 00:55:22;;;;;;;11.45;7.78;;;;;;;;;;5057799;28;20101;-83
2021/09/16 00:57:53;;;;;;;13.95;6.90;;;;;;;;;;5057248;28;20128;-83
2021/09/16 01:00:21;;;;;;;12.13;7.35;;;;;;;;;;5056828;28;20064;-83
2021/09/16 01:02:47;;;;;;;10.73;7.00;;;;;;;;;;5056698;28;20458;-83
2021/09/16 01:05:15;;;;;;;18.90;7.78;;;;;;;;;;5056349;28;20099;-82
2021/09/16 01:07:42;;;;;;;12.18;7.35;;;;;;;;;;5056396;28;20111;-82
2021/09/16 01:10:50;;;;;;;14.30;7.80;;;;;;;;;;5056629;28;20458;-82
2021/09/16 01:13:19;;;;;;;11.55;7.35;;;;;;;;;;5056814;28;20122;-82
2021/09/16 01:15:46;;;;;;;13.00;7.50;;;;;;;;;;5057723;28;20041;-82
2021/09/16 01:18:13;;;;;;;13.85;7.53;;;;;;;;;;5063583;28;20045;-82
2021/09/16 01:20:40;;;;;;;12.95;7.97;;;;;;;;;;5059101;28;20045;-83
2021/09/16 01:23:08;;;;;;;13.82;7.63;;;;;;;;;;5057852;28;20041;-83
2021/09/16 01:25:35;;;;;;;15.07;8.10;;;;;;;;;;5056964;28;20083;-83
2021/09/16 01:28:03;;;;;;;12.10;8.30;;;;;;;;;;5056908;28;20122;-83
2021/09/16 01:30:31;;;;;;;13.10;7.13;;;;;;;;;;5057221;28;20041;-83
2021/09/16 01:32:58;;;;;;;11.45;6.93;;;;;;;;;;5065239;28;20099;-82
2021/09/16 01:35:26;;;;;;;12.95;7.68;;;;;;;;;;5065394;28;20080;-82
2021/09/16 01:37:54;;;;;;;13.57;8.65;;;;;;;;;;5065343;28;20041;-82
2021/09/16 01:40:22;;;;;;;13.50;8.32;;;;;;;;;;5065866;28;20045;-82
2021/09/16 01:42:49;;;;;;;10.82;6.97;;;;;;;;;;5059770;28;20076;-83
2021/09/16 01:45:18;;;;;;;11.18;7.30;;;;;;;;;;5056370;28;20095;-83
2021/09/16 01:47:46;;;;;;;11.32;7.07;;;;;;;;;;5056712;28;20048;-83
2021/09/16 01:50:14;;;;;;;12.88;8.05;;;;;;;;;;5056031;28;20498;-83
2021/09/16 01:52:41;;;;;;;11.80;7.63;;;;;;;;;;5055388;28;20048;-82
2021/09/16 01:55:09;;;;;;;12.10;7.40;;;;;;;;;;5058182;28;20045;-82
2021/09/16 01:57:38;;;;;;;11.35;6.57;;;;;;;;;;5065143;28;20079;-82
2021/09/16 02:00:06;;;;;;;11.02;6.90;;;;;;;;;;5065325;28;20045;-83
2021/09/16 02:02:33;;;;;;;14.52;8.20;;;;;;;;;;5063409;28;20130;-83
2021/09/16 02:05:00;;;;;;;11.77;7.68;;;;;;;;;;5056606;28;20450;-82
2021/09/16 02:07:27;;;;;;;12.07;7.50;;;;;;;;;;5057522;28;20041;-83
2021/09/16 02:09:54;;;;;;;12.88;7.72;;;;;;;;;;5057266;28;20461;-83
2021/09/16 02:12:21;;;;;;;15.55;8.25;;;;;;;;;;5057598;28;20433;-83
2021/09/16 02:14:50;;;;;;;15.30;9.05;;;;;;;;;;5057575;28;20049;-83
2021/09/16 02:17:17;;;;;;;12.95;7.82;;;;;;;;;;5057053;28;20102;-83
2021/09/16 02:19:44;;;;;;;13.90;7.93;;;;;;;;;;5057423;28;20048;-83
2021/09/16 02:22:11;;;;;;;12.38;8.10;;;;;;;;;;5057793;28;20049;-83
2021/09/16 02:24:38;;;;;;;12.15;8.02;;;;;;;;;;5056867;28;20045;-83
2021/09/16 02:27:05;;;;;;;12.63;8.15;;;;;;;;;;5057194;28;20565;-83
2021/09/16 02:29:32;;;;;;;14.55;8.15;;;;;;;;;;5057298;28;20055;-83
2021/09/16 02:32:00;;;;;;;16.35;9.30;;;;;;;;;;5056881;28;20040;-83
2021/09/16 02:34:27;;;;;;;11.65;8.23;;;;;;;;;;5056594;28;20499;-83
2021/09/16 02:36:54;;;;;;;13.25;8.73;;;;;;;;;;5057124;28;20102;-82
2021/09/16 02:39:20;;;;;;;14.55;8.15;;;;;;;;;;5058805;28;20049;-83
2021/09/16 02:41:47;;;;;;;11.30;7.72;;;;;;;;;;5061244;28;20041;-83
2021/09/16 02:44:14;;;;;;;12.95;8.30;;;;;;;;;;5056549;28;20503;-83
2021/09/16 02:46:41;;;;;;;13.55;8.30;;;;;;;;;;5057007;28;20079;-83
2021/09/16 02:49:09;;;;;;;12.73;8.43;;;;;;;;;;5056483;28;20045;-83
2021/09/16 02:51:35;;;;;;;12.77;8.52;;;;;;;;;;5057094;28;20049;-82
2021/09/16 02:54:02;;;;;;;15.27;9.60;;;;;;;;;;5056749;28;20115;-83
2021/09/16 02:56:29;;;;;;;13.07;7.60;;;;;;;;;;5056216;28;20494;-83
2021/09/16 02:58:56;;;;;;;12.65;8.07;;;;;;;;;;5055948;28;20044;-82
2021/09/16 03:01:23;;;;;;;10.80;6.82;;;;;;;;;;5056511;28;20053;-83
2021/09/16 03:03:49;;;;;;;12.80;6.93;;;;;;;;;;5056653;28;20640;-83
2021/09/16 03:06:17;;;;;;;12.02;6.93;;;;;;;;;;5059996;28;20491;-83
2021/09/16 03:08:44;;;;;;;10.82;6.82;;;;;;;;;;5060486;28;20053;-82
2021/09/16 03:11:11;;;;;;;12.05;6.20;;;;;;;;;;5060446;28;20095;-83
2021/09/16 03:13:37;;;;;;;10.88;6.28;;;;;;;;;;5077796;28;20037;-82
2021/09/16 03:16:05;;;;;;;10.40;6.30;;;;;;;;;;5081079;28;20061;-82
2021/09/16 03:18:31;;;;;;;11.43;6.20;;;;;;;;;;5080544;28;20033;-82
2021/09/16 03:20:58;;;;;;;11.80;6.28;;;;;;;;;;5076189;28;20052;-82
2021/09/16 03:23:26;;;;;;;10.50;6.07;;;;;;;;;;5060358;28;20094;-83
2021/09/16 03:25:53;;;;;;;10.48;6.30;;;;;;;;;;5060256;28;20049;-83
2021/09/16 03:28:20;;;;;;;11.30;6.50;;;;;;;;;;5059665;28;20044;-82
2021/09/16 03:30:47;;;;;;;8.85;6.15;;;;;;;;;;5059265;28;20049;-82
2021/09/16 03:33:13;;;;;;;9.48;6.03;;;;;;;;;;5058947;28;20094;-82
2021/09/16 03:35:40;;;;;;;11.23;6.50;;;;;;;;;;5057683;28;20045;-82
2021/09/16 03:38:07;;;;;;;10.95;7.20;;;;;;;;;;5057695;28;20495;-82
2021/09/16 03:40:35;;;;;;;9.13;6.93;;;;;;;;;;5056895;28;20103;-83
2021/09/16 03:43:02;;;;;;;9.50;6.47;;;;;;;;;;5057682;28;20052;-82
2021/09/16 03:45:29;;;;;;;11.07;7.00;;;;;;;;;;5057385;28;20483;-83
2021/09/16 03:47:56;;;;;;;13.88;7.75;;;;;;;;;;5058441;28;20416;-82
2021/09/16 03:50:23;;;;;;;11.95;8.30;;;;;;;;;;5058302;28;20055;-82
2021/09/16 03:52:50;;;;;;;12.52;7.68;;;;;;;;;;5059065;28;20044;-82
2021/09/16 03:55:17;;;;;;;12.85;8.18;;;;;;;;;;5060318;28;20472;-82
2021/09/16 03:57:45;;;;;;;15.40;8.98;;;;;;;;;;5061982;28;20049;-83
2021/09/16 04:00:13;;;;;;;15.55;9.02;;;;;;;;;;5061792;28;20056;-82
2021/09/16 04:02:40;;;;;;;18.52;10.35;;;;;;;;;;5060138;28;20056;-82
2021/09/16 04:05:08;;;;;;;14.43;9.00;;;;;;;;;;5059471;28;20053;-82
2021/09/16 04:07:35;;;;;;;18.10;9.00;;;;;;;;;;5059602;28;20052;-82
2021/09/16 04:10:02;;;;;;;17.33;8.40;;;;;;;;;;5060195;28;20049;-82
2021/09/16 04:12:28;;;;;;;16.50;8.98;;;;;;;;;;5059549;28;20064;-82
2021/09/16 04:14:57;;;;;;;15.65;9.07;;;;;;;;;;5058909;28;20041;-82
2021/09/16 04:17:23;;;;;;;13.93;9.02;;;;;;;;;;5059656;28;20068;-83
2021/09/16 04:19:53;;;;;;;13.27;8.38;;;;;;;;;;5058832;28;20060;-83
2021/09/16 04:22:20;;;;;;;14.10;7.00;;;;;;;;;;5058860;28;20045;-83
2021/09/16 04:24:47;;;;;;;10.23;6.90;;;;;;;;;;5058012;28;20136;-83
2021/09/16 04:27:14;;;;;;;9.30;5.82;;;;;;;;;;5059073;28;20056;-83
2021/09/16 04:29:41;;;;;;;14.13;5.95;;;;;;;;;;5058701;28;20052;-83
2021/09/16 04:32:10;;;;;;;10.20;6.63;;;;;;;;;;5059259;28;20056;-83
2021/09/16 04:34:37;;;;;;;13.77;8.00;;;;;;;;;;5062833;28;20055;-83
2021/09/16 04:37:05;;;;;;;12.70;8.60;;;;;;;;;;5061539;28;20053;-83
2021/09/16 04:39:32;;;;;;;14.93;8.00;;;;;;;;;;5074813;22;20071;-78
2021/09/16 04:41:59;;;;;;;12.32;8.73;;;;;;;;;;4974901;28;20050;-80
2021/09/16 04:44:26;;;;;;;14.85;8.85;;;;;;;;;;4978353;28;20498;-80
2021/09/16 04:46:53;;;;;;;14.13;8.30;;;;;;;;;;4978836;28;20062;-80
2021/09/16 04:49:21;;;;;;;13.50;8.10;;;;;;;;;;4978743;28;20857;-80
2021/09/16 04:51:47;;;;;;;15.65;10.38;;;;;;;;;;4979296;28;20043;-79
2021/09/16 04:54:14;;;;;;;17.48;9.63;;;;;;;;;;4979301;28;20406;-80
2021/09/16 04:56:41;;;;;;;15.23;7.72;;;;;;;;;;4997706;28;20054;-80
2021/09/16 04:59:08;;;;;;;15.40;8.43;;;;;;;;;;4998889;28;20053;-79
2021/09/16 05:01:35;;;;;;;14.02;8.65;;;;;;;;;;4999756;28;20050;-81
2021/09/16 05:04:02;;;;;;;12.73;8.55;;;;;;;;;;5000842;28;20058;-80
2021/09/16 05:06:30;;;;;;;13.77;8.85;;;;;;;;;;5002759;28;20359;-80
2021/09/16 05:08:57;;;;;;;14.43;8.98;;;;;;;;;;5011498;28;20073;-80
2021/09/16 05:11:24;;;;;;;14.60;9.02;;;;;;;;;;5009297;28;20453;-80
2021/09/16 05:13:51;;;;;;;14.20;8.80;;;;;;;;;;4997517;28;20042;-79
2021/09/16 05:16:18;;;;;;;14.70;8.88;;;;;;;;;;5000683;28;20054;-81
2021/09/16 05:18:44;;;;;;;12.32;8.60;;;;;;;;;;4999456;28;20066;-80
2021/09/16 05:21:12;;;;;;;16.13;8.35;;;;;;;;;;4998390;28;20046;-79
2021/09/16 05:23:40;;;;;;;18.55;9.25;;;;;;;;;;4999301;28;20057;-79
2021/09/16 05:26:07;;;;;;;14.32;8.60;;;;;;;;;;4999873;28;20046;-80
2021/09/16 05:28:34;;;;;;;18.50;10.20;;;;;;;;;;4997871;28;20077;-80
2021/09/16 05:31:01;;;;;;;16.63;10.38;;;;;;;;;;4998140;28;20042;-80
2021/09/16 05:33:28;;;;;;;16.10;9.75;;;;;;;;;;4998428;28;20077;-80
2021/09/16 05:35:55;;;;;;;15.45;8.95;;;;;;;;;;4998919;28;20570;-80
2021/09/16 05:38:21;;;;;;;16.60;9.02;;;;;;;;;;4998850;28;20054;-79
2021/09/16 05:40:50;;;;;;;17.33;9.70;;;;;;;;;;4999485;28;20050;-80
2021/09/16 05:43:16;;;;;;;15.23;9.75;;;;;;;;;;4998012;28;20109;-80
2021/09/16 05:45:43;;;;;;;16.90;9.85;;;;;;;;;;4998435;28;20097;-80
2021/09/16 05:48:10;;;;;;;18.83;9.48;;;;;;;;;;4997828;28;20053;-80
2021/09/16 05:50:37;;;;;;;14.07;8.82;;;;;;;;;;4996781;28;20424;-80
2021/09/16 05:53:04;;;;;;;16.13;8.95;;;;;;;;;;4997916;28;20085;-79
2021/09/16 05:55:31;;;;;;;13.57;8.45;;;;;;;;;;4999149;28;20050;-80
2021/09/16 05:58:01;;;;;;;13.88;8.57;;;;;;;;;;4997467;28;20115;-79
2021/09/16 06:00:28;;;;;;;13.65;7.72;;;;;;;;;;4999638;28;20406;-80
2021/09/16 06:02:55;;;;;;;13.10;8.07;;;;;;;;;;4997377;28;20050;-80
2021/09/16 06:05:22;;;;;;;21.75;8.02;;;;;;;;;;4999358;28;20050;-80
2021/09/16 06:07:49;;;;;;;11.23;7.57;;;;;;;;;;4997633;28;20145;-79
2021/09/16 06:10:16;;;;;;;11.25;6.70;;;;;;;;;;4997425;28;20083;-80
2021/09/16 06:12:43;;;;;;;11.98;6.22;;;;;;;;;;4998049;28;20503;-80
2021/09/16 06:15:12;;;;;;;11.23;6.60;;;;;;;;;;4996590;28;20050;-80
2021/09/16 06:17:39;;;;;;;10.27;6.45;;;;;;;;;;4997184;28;20061;-80
2021/09/16 06:20:07;;;;;;;14.27;7.38;;;;;;;;;;4996808;28;20054;-79
2021/09/16 06:22:34;;;;;;;13.00;8.40;;;;;;;;;;4997282;28;20058;-80
2021/09/16 06:25:01;;;;;;;10.82;6.18;;;;;;;;;;4996529;28;20156;-81
2021/09/16 06:27:28;;;;;;;15.50;7.65;;;;;;;;;;4996501;28;20057;-80
2021/09/16 06:29:55;;;;;;;14.35;8.27;;;;;;;;;;4997777;28;20517;-80
2021/09/16 06:32:23;;;;;;;11.20;7.15;;;;;;;;;;4997139;28;20046;-80
2021/09/16 06:34:50;;;;;;;11.40;7.40;;;;;;;;;;4996808;28;20053;-79
2021/09/16 06:37:17;;;;;;;11.15;6.15;;;;;;;;;;4996630;28;20046;-79
2021/09/16 06:39:47;;;;;;;10.73;6.65;;;;;;;;;;4999603;28;20253;-80
2021/09/16 06:42:14;;;;;;;11.43;6.10;;;;;;;;;;5000958;28;20461;-80
2021/09/16 06:44:40;;;;;;;12.15;7.32;;;;;;;;;;5000115;28;20054;-80
2021/09/16 06:47:08;;;;;;;13.23;6.70;;;;;;;;;;5000972;28;20054;-80
2021/09/16 06:49:40;;;;;;;14.93;7.40;;;;;;;;;;5000638;28;20050;-80
2021/09/16 06:52:07;;;;;;;13.82;8.32;;;;;;;;;;4999876;28;20053;-78
2021/09/16 06:54:34;;;;;;;14.48;8.13;;;;;;;;;;4996597;28;20058;-78
2021/09/16 06:57:01;;;;;;;12.85;7.32;;;;;;;;;;4980132;28;20046;-79
2021/09/16 06:59:28;;;;;;;11.27;6.50;;;;;;;;;;4981524;28;20465;-79
2021/09/16 07:01:55;;;;;;;14.15;8.05;;;;;;;;;;4980089;28;20054;-79
2021/09/16 07:04:22;;;;;;;12.18;7.28;;;;;;;;;;4978432;28;20042;-80
2021/09/16 07:06:53;;;;;;;12.60;7.78;;;;;;;;;;4977996;28;20047;-79
2021/09/16 07:09:20;;;;;;;12.68;7.53;;;;;;;;;;4976333;28;20058;-79
2021/09/16 07:11:47;;;;;;;13.27;7.70;;;;;;;;;;4977908;28;20513;-79
2021/09/16 07:14:13;;;;;;;14.32;7.50;;;;;;;;;;4979182;28;20494;-80
2021/09/16 07:16:40;;;;;;;13.07;7.80;;;;;;;;;;4979903;28;20057;-80
2021/09/16 07:19:07;;;;;;;17.80;10.00;;;;;;;;;;4979292;28;20394;-80
2021/09/16 07:21:34;;;;;;;16.40;9.57;;;;;;;;;;4978958;28;20050;-80
2021/09/16 07:24:03;;;;;;;14.18;9.55;;;;;;;;;;4979214;28;20057;-80
2021/09/16 07:26:29;;;;;;;14.55;8.10;;;;;;;;;;4978539;28;20047;-79
2021/09/16 07:28:56;;;;;;;14.15;7.35;;;;;;;;;;4978932;28;20498;-79
2021/09/16 07:31:23;;;;;;;13.32;7.63;;;;;;;;;;4978694;28;20135;-80
2021/09/16 07:33:50;;;;;;;16.35;8.93;;;;;;;;;;4978697;28;20061;-80
2021/09/16 07:36:17;;;;;;;15.32;8.82;;;;;;;;;;4979187;28;20051;-79
2021/09/16 07:38:44;;;;;;;14.15;8.55;;;;;;;;;;4978862;28;20054;-79
2021/09/16 07:41:12;;;;;;;14.32;9.13;;;;;;;;;;4977387;28;20065;-80
2021/09/16 07:43:39;;;;;;;10.65;7.68;;;;;;;;;;4978536;28;20042;-81
2021/09/16 07:46:06;;;;;;;16.20;8.30;;;;;;;;;;4979207;28;20061;-79
2021/09/16 07:48:32;;;;;;;17.00;8.73;;;;;;;;;;4978328;28;20050;-79
2021/09/16 07:50:59;;;;;;;12.55;7.45;;;;;;;;;;4976997;28;20686;-79
2021/09/16 07:53:27;;;;;;;12.80;7.72;;;;;;;;;;4978742;28;20065;-79
2021/09/16 07:55:54;;;;;;;11.32;7.18;;;;;;;;;;4991015;28;20046;-79
2021/09/16 07:58:23;;;;;;;15.32;8.02;;;;;;;;;;4997764;28;20054;-79
2021/09/16 08:00:51;;;;;;;11.55;7.82;;;;;;;;;;4997614;28;20042;-79
2021/09/16 08:03:18;;;;;;;12.40;7.70;;;;;;;;;;4995806;28;20050;-78
2021/09/16 08:05:45;;;;;;;14.48;8.10;;;;;;;;;;4995423;28;20552;-78
2021/09/16 08:08:12;;;;;;;17.27;8.50;;;;;;;;;;4995887;28;20520;-80
2021/09/16 08:10:39;;;;;;;12.00;7.78;;;;;;;;;;4995888;28;20058;-79
2021/09/16 08:13:06;;;;;;;14.75;8.20;;;;;;;;;;4997434;28;20050;-79
2021/09/16 08:15:35;;;;;;;16.27;9.35;;;;;;;;;;4996649;28;20057;-79
2021/09/16 08:18:02;;;;;;;15.60;9.40;;;;;;;;;;4997364;28;20056;-79
2021/09/16 08:20:29;;;;;;;15.90;8.63;;;;;;;;;;4999326;28;20054;-79
2021/09/16 08:23:21;;;;;;;14.88;8.27;;;;;;;;;;5000764;28;20066;-79
2021/09/16 08:25:48;;;;;;;13.50;7.32;;;;;;;;;;4986421;28;20073;-79
2021/09/16 08:28:15;;;;;;;12.30;7.32;;;;;;;;;;5004980;28;20047;-80
2021/09/16 08:30:44;;;;;;;11.32;7.18;;;;;;;;;;4997101;28;20050;-79
2021/09/16 08:33:12;;;;;;;13.68;7.57;;;;;;;;;;4998436;28;20046;-79
2021/09/16 08:35:39;;;;;;;15.25;8.25;;;;;;;;;;5001704;28;20050;-83
2021/09/16 08:38:06;;;;;;;11.68;7.88;;;;;;;;;;4996562;28;20046;-87
2021/09/16 08:40:33;;;;;;;17.42;8.68;;;;;;;;;;4996547;28;20042;-86
2021/09/16 08:43:04;;;;;;;12.82;8.10;;;;;;;;;;4995972;28;20444;-86
2021/09/16 08:45:33;;;;;;;15.65;9.23;;;;;;;;;;4996043;28;20048;-85
2021/09/16 08:48:02;;;;;;;15.02;8.15;;;;;;;;;;4997636;28;20050;-86
2021/09/16 08:50:31;;;;;;;14.00;7.30;;;;;;;;;;5006490;23;20060;-66
2021/09/16 08:52:58;;;;;;;14.45;7.85;;;;;;;;;;4994264;28;20151;-59
2021/09/16 08:55:28;;;;;;;11.40;7.40;;;;;;;;;;5000593;28;20447;-57
2021/09/16 08:57:58;;;;;;;12.38;7.15;;;;;;;;;;5011454;28;20335;-59
2021/09/16 09:00:27;;;;;;;14.40;7.90;;;;;;;;;;5011529;28;20050;-58
2021/09/16 09:02:55;;;;;;;12.75;8.02;;;;;;;;;;5011198;28;20049;-58
2021/09/16 09:05:26;;;;;;;11.10;7.30;;;;;;;;;;5011587;28;20380;-58
2021/09/16 09:07:55;;;;;;;12.48;8.18;;;;;;;;;;5011276;28;20046;-58
2021/09/16 09:10:38;;;;;;;13.00;8.82;;;;;;;;;;5011305;28;20470;-53
2021/09/16 09:13:07;;;;;;;12.93;7.32;;;;;;;;;;5011342;28;20479;-58
2021/09/16 09:15:38;;;;;;;13.38;7.93;;;;;;;;;;5010927;28;20050;-57
2021/09/16 09:18:06;;;;;;;;;;;;;;;;;;5011308;28;20081;-67
2021/09/16 09:20:35;;;;;;;10.95;6.10;;;;;;;;;;5010919;28;20016;-67
2021/09/16 09:23:28;;;;;;;12.05;6.75;;;;;;;;;;5011344;28;20130;-66
2021/09/16 09:25:55;;;;;;;9.43;6.20;;;;;;;;;;4972176;28;20055;-65
2021/09/16 09:28:32;;;;;;;10.55;6.72;;;;;;;;;;4972003;28;20077;-63
2021/09/16 09:31:01;;;;;;;11.73;6.63;;;;;;;;;;4971805;28;20053;-62
2021/09/16 09:33:33;;;;;;;10.13;5.72;;;;;;;;;;4971762;28;20054;-57
2021/09/16 09:36:09;;;;;;;11.63;6.82;;;;;;;;;;4971910;28;20073;-63
2021/09/16 09:38:49;;;;;;;13.05;8.05;;;;;;;;;;4971999;28;20130;-66
2021/09/16 09:41:24;;;;;;;11.00;6.83;;;;;;;;;;4976323;28;20126;-65
2021/09/16 09:44:00;;;;;;;12.43;6.70;;;;;;;;;;4990684;28;20050;-64
2021/09/16 09:46:29;;;;;;;11.25;7.25;;;;;;;;;;4993391;28;20133;-64
2021/09/16 09:48:59;;;;;;;12.95;7.72;;;;;;;;;;4992169;28;20046;-64
2021/09/16 09:51:49;;;;;;;16.00;10.55;;;;;;;;;;4999835;28;20049;-64
2021/09/16 09:54:22;;;;;;;16.30;9.60;;;;;;;;;;5000323;28;20046;-65
2021/09/16 09:57:00;;;;;;;13.63;8.10;;;;;;;;;;4971155;28;20519;-65
2021/09/16 09:59:29;;;;;;;12.52;7.20;;;;;;;;;;4971525;28;20054;-64
2021/09/16 10:02:04;;;;;;;11.55;7.45;;;;;;;;;;4971354;28;20046;-65
2021/09/16 10:04:32;;;;;;;14.40;8.43;;;;;;;;;;5009653;28;20096;-64
2021/09/16 10:07:00;;;;;;;13.77;7.50;;;;;;;;;;5010181;28;20097;-64
2021/09/16 10:09:28;;;;;;;12.38;7.32;;;;;;;;;;5009823;28;20049;-64
2021/09/16 10:11:58;;;;;;;11.90;7.03;;;;;;;;;;5010013;28;20050;-65
2021/09/16 10:14:25;;;;;;;11.80;7.05;;;;;;;;;;5009917;28;20534;-64
2021/09/16 10:16:52;;;;;;;12.38;7.88;;;;;;;;;;5002414;28;20418;-65
2021/09/16 10:19:19;;;;;;;12.02;7.68;;;;;;;;;;4992220;28;20051;-64
2021/09/16 10:21:47;;;;;;;14.15;7.28;;;;;;;;;;4990417;28;20062;-64
2021/09/16 10:24:17;;;;;;;10.85;6.60;;;;;;;;;;4990152;28;20126;-65
2021/09/16 10:26:48;;;;;;;11.02;6.38;;;;;;;;;;4992882;28;20134;-63
2021/09/16 10:29:36;;;;;;;9.23;6.25;;;;;;;;;;4990937;28;20062;-64
2021/09/16 10:32:38;;;;;;;12.50;7.57;;;;;;;;;;4991167;28;20518;-64
2021/09/16 10:35:25;;;;;;;11.98;8.15;;;;;;;;;;4992401;28;20050;-63
2021/09/16 10:37:52;;;;;;;11.98;7.13;;;;;;;;;;4987817;28;20057;-63
2021/09/16 10:42:59;;;;;;;13.75;7.15;;;;;;;;;;5045429;28;20048;-63
2021/09/16 10:45:35;;;;;;;11.48;6.90;;;;;;;;;;5049251;28;20041;-65
2021/09/16 10:48:30;;;;;;;13.50;7.70;;;;;;;;;;5049373;28;20060;-66
2021/09/16 10:51:08;;;;;;;14.88;8.90;;;;;;;;;;5046774;28;20052;-66
2021/09/16 10:53:44;;;;;;;14.40;7.28;;;;;;;;;;5049392;28;20045;-65
2021/09/16 10:56:40;;;;;;;14.68;7.80;;;;;;;;;;5034291;28;20498;-65
2021/09/16 10:59:09;;;;;;;10.95;6.85;;;;;;;;;;5028177;28;20308;-66
2021/09/16 11:01:58;;;;;;;12.07;7.43;;;;;;;;;;5029262;28;20049;-66
2021/09/16 11:04:25;;;;;;;16.35;7.60;;;;;;;;;;5029255;28;20057;-66
2021/09/16 11:06:52;;;;;;;14.23;8.55;;;;;;;;;;5029713;28;20140;-66
2021/09/16 11:09:27;;;;;;;15.32;8.90;;;;;;;;;;5028926;28;20049;-66
2021/09/16 11:11:58;;;;;;;14.75;7.80;;;;;;;;;;5029295;28;20132;-66
2021/09/16 11:14:36;;;;;;;13.07;8.55;;;;;;;;;;5030195;28;20053;-66
2021/09/16 11:17:05;;;;;;;12.93;8.63;;;;;;;;;;5029462;28;20521;-66
2021/09/16 11:19:33;;;;;;;13.03;7.93;;;;;;;;;;5029510;28;20486;-66
2021/09/16 11:22:06;;;;;;;14.23;9.30;;;;;;;;;;5029640;28;20676;-65
2021/09/16 11:24:37;;;;;;;14.10;8.65;;;;;;;;;;5029829;28;20077;-67
2021/09/16 11:27:04;;;;;;;;;;;;;;;;;;5033461;28;20124;-65
2021/09/16 11:29:50;;;;;;;13.50;7.90;;;;;;;;;;5033195;28;19929;-66
2021/09/16 11:32:18;;;;;;;12.77;7.13;;;;;;;;;;5033428;28;20064;-65
2021/09/16 11:34:53;;;;;;;14.88;7.65;;;;;;;;;;5033316;28;20080;-65
2021/09/16 11:37:28;;;;;;;15.05;7.68;;;;;;;;;;5033188;28;20506;-66
2021/09/16 11:40:04;;;;;;;14.05;8.90;;;;;;;;;;5033669;28;20151;-66
2021/09/16 11:42:32;;;;;;;13.02;8.52;;;;;;;;;;5032711;28;20061;-66
2021/09/16 11:45:22;;;;;;;12.95;9.20;;;;;;;;;;5032713;28;20060;-65
2021/09/16 11:47:51;;;;;;;14.38;8.90;;;;;;;;;;5033417;28;20136;-66
2021/09/16 11:50:26;;;;;;;15.38;8.45;;;;;;;;;;5033187;28;20045;-68
2021/09/16 11:52:58;;;;;;;14.48;8.82;;;;;;;;;;5032394;28;20509;-65
2021/09/16 11:55:26;;;;;;;14.77;8.85;;;;;;;;;;5041283;28;20045;-65
2021/09/16 11:58:08;;;;;;;14.60;8.45;;;;;;;;;;5052689;28;20049;-66
2021/09/16 12:00:39;;;;;;;14.52;8.52;;;;;;;;;;5052596;28;20052;-66
2021/09/16 12:03:08;;;;;;;12.50;7.35;;;;;;;;;;5052628;28;20044;-66
2021/09/16 12:05:40;;;;;;;16.00;8.50;;;;;;;;;;5052630;28;20132;-65
2021/09/16 12:08:08;;;;;;;13.55;8.18;;;;;;;;;;5052276;28;20445;-66
2021/09/16 12:10:40;;;;;;;13.20;8.40;;;;;;;;;;5051942;28;20053;-66
2021/09/16 12:13:08;;;;;;;12.45;8.23;;;;;;;;;;5052069;28;20128;-66
2021/09/16 12:15:37;;;;;;;12.43;8.07;;;;;;;;;;5052025;28;20434;-66
2021/09/16 12:18:05;;;;;;;15.02;8.90;;;;;;;;;;5052080;28;20061;-66
2021/09/16 12:20:32;;;;;;;14.00;8.43;;;;;;;;;;5051830;28;20133;-66
2021/09/16 12:22:59;;;;;;;12.05;6.95;;;;;;;;;;5051942;28;20063;-66
2021/09/16 12:25:27;;;;;;;11.38;6.60;;;;;;;;;;5051672;28;20129;-66
2021/09/16 12:28:05;;;;;;;9.85;6.32;;;;;;;;;;5052025;28;20084;-66
2021/09/16 12:30:38;;;;;;;13.20;7.32;;;;;;;;;;5051832;28;20041;-66
2021/09/16 12:33:40;;;;;;;10.40;7.30;;;;;;;;;;5052114;28;20464;-66
2021/09/16 12:36:19;;;;;;;10.18;5.47;;;;;;;;;;5044622;28;20063;-66
2021/09/16 12:38:48;;;;;;;11.10;6.43;;;;;;;;;;5051878;28;20060;-66
2021/09/16 12:41:36;;;;;;;8.45;5.53;;;;;;;;;;5050645;28;20092;-66
2021/09/16 12:44:09;;;;;;;10.00;4.85;;;;;;;;;;5031219;28;20136;-66
2021/09/16 12:46:50;;;;;;;11.25;5.65;;;;;;;;;;5031945;28;20053;-66
2021/09/16 12:49:35;;;;;;;9.70;5.45;;;;;;;;;;5031527;28;20107;-66
2021/09/16 12:52:05;;;;;;;9.95;5.75;;;;;;;;;;5031760;28;20045;-66
2021/09/16 12:54:33;;;;;;;9.40;6.15;;;;;;;;;;5032909;28;20045;-65
2021/09/16 12:57:03;;;;;;;10.05;6.57;;;;;;;;;;5048446;28;20055;-65
2021/09/16 13:02:44;;;;;;;9.30;5.32;;;;;;;;;;5030733;28;19920;-65
2021/09/16 13:05:19;;;;;;;10.20;6.32;;;;;;;;;;5051146;28;20095;-65
2021/09/16 13:08:05;;;;;;;10.63;5.90;;;;;;;;;;5036205;28;20053;-65
2021/09/16 13:10:32;;;;;;;10.90;6.75;;;;;;;;;;5031712;28;20055;-65
2021/09/16 13:13:03;;;;;;;9.43;5.75;;;;;;;;;;5031122;28;20534;-65
2021/09/16 13:15:33;;;;;;;8.50;4.40;;;;;;;;;;5030864;28;20057;-65
2021/09/16 13:18:02;;;;;;;8.15;4.68;;;;;;;;;;5030962;28;20053;-65
2021/09/16 13:20:29;;;;;;;6.85;3.72;;;;;;;;;;5030984;28;20053;-65
2021/09/16 13:22:56;;;;;;;6.63;3.60;;;;;;;;;;5031070;28;20053;-65
2021/09/16 13:25:24;;;;;;;6.68;3.10;;;;;;;;;;5030752;28;20562;-65
2021/09/16 13:27:51;;;;;;;9.23;3.92;;;;;;;;;;5030601;28;20056;-65
2021/09/16 13:30:18;;;;;;;7.68;3.53;;;;;;;;;;5030724;28;20060;-66
2021/09/16 13:32:46;;;;;;;5.40;3.60;;;;;;;;;;5031218;28;20060;-65
2021/09/16 13:35:15;;;;;;;7.65;3.75;;;;;;;;;;5030725;28;20056;-66
2021/09/16 13:37:43;;;;;;;9.32;3.33;;;;;;;;;;5030950;28;20144;-66
2021/09/16 13:40:12;;;;;;;7.97;3.20;;;;;;;;;;5030666;28;20045;-65
2021/09/16 13:42:41;;;;;;;8.65;3.60;;;;;;;;;;5030488;28;20099;-65
2021/09/16 13:45:11;;;;;;;6.28;3.38;;;;;;;;;;5030217;28;20145;-66
2021/09/16 13:47:38;;;;;;;9.30;4.00;;;;;;;;;;5030587;28;20584;-65
2021/09/16 13:50:06;;;;;;;6.55;3.40;;;;;;;;;;5029899;28;20099;-66
2021/09/16 13:52:35;;;;;;;6.38;3.35;;;;;;;;;;5030497;28;20081;-66
2021/09/16 13:55:02;;;;;;;6.50;3.97;;;;;;;;;;5035943;28;20437;-66
2021/09/16 13:57:28;;;;;;;7.20;3.47;;;;;;;;;;5050234;28;20144;-66
2021/09/16 13:59:56;;;;;;;9.15;6.75;;;;;;;;;;5050165;28;20056;-65
2021/09/16 14:02:23;;;;;;;7.63;4.65;;;;;;;;;;5050076;28;20140;-65
2021/09/16 14:08:14;;;;;;;9.27;5.57;;;;;;;;;;5028875;28;20041;-65
2021/09/16 14:10:42;;;;;;;7.85;3.30;;;;;;;;;;5030246;28;20494;-65
2021/09/16 14:13:09;;;;;;;6.70;3.83;;;;;;;;;;5029832;28;20045;-64
2021/09/16 14:15:37;;;;;;;6.80;4.03;;;;;;;;;;5030795;28;20106;-66
2021/09/16 14:18:05;;;;;;;8.18;3.00;;;;;;;;;;5030012;28;20057;-66
2021/09/16 14:20:32;;;;;;;7.07;2.83;;;;;;;;;;5029952;28;20049;-66
2021/09/16 14:22:59;;;;;;;8.05;3.85;;;;;;;;;;5032612;28;20128;-66
2021/09/16 14:25:30;;;;;;;5.55;2.90;;;;;;;;;;5033807;28;20115;-66
2021/09/16 14:27:58;;;;;;;5.53;2.90;;;;;;;;;;5048048;28;20503;-66
2021/09/16 14:30:25;;;;;;;6.28;3.83;;;;;;;;;;5050409;28;20077;-66
2021/09/16 14:32:52;;;;;;;5.35;2.67;;;;;;;;;;5050802;28;20049;-67
2021/09/16 14:35:21;;;;;;;5.60;2.70;;;;;;;;;;5050069;28;20049;-65
2021/09/16 14:37:48;;;;;;;4.53;2.53;;;;;;;;;;5050879;28;20381;-66
2021/09/16 14:40:15;;;;;;;7.72;3.40;;;;;;;;;;5042198;28;20080;-66
2021/09/16 14:42:43;;;;;;;8.30;4.10;;;;;;;;;;5050438;28;20052;-66
2021/09/16 14:45:11;;;;;;;6.10;3.00;;;;;;;;;;5049338;28;20084;-66
2021/09/16 14:47:38;;;;;;;4.70;2.67;;;;;;;;;;5049580;28;20563;-66
2021/09/16 14:50:06;;;;;;;9.52;2.90;;;;;;;;;;5049317;28;20059;-66
2021/09/16 14:52:34;;;;;;;8.50;4.90;;;;;;;;;;5049782;28;20127;-66
2021/09/16 14:55:01;;;;;;;6.40;3.55;;;;;;;;;;5044288;28;20053;-66